Anza Borrego Desert Research Center, California Weather observations

Data are for 10 minute period ending at time listed.
 Day   Time   Solar   Ave.   Ave.  Ave.  Vector  Max.   Baro.   Total    
  of    of     Rad.   Air    Rel.  Wind   Wind   Wind  Press.  Precip.   
Year   Day            Temp.  Hum.  Speed  Dir.   Gust                    
2014   (PST)  Kw/m2    F      %     mph   deg.    mph    mb.     in.     
-------------------------------------------------------------------------
 355    7:50   0.14   58.1    60    1.9    12     2.9   501.6    0.00 
 355    8:00   0.14   56.9    63    1.9     5     2.9   501.6    0.00 
 355    8:10   0.15   55.1    66    1.5   291     2.6   501.6    0.00 
 355    8:20   0.16   56.7    64    1.4   286     2.0   501.6    0.00 
 355    8:30   0.19   58.4    59    1.2   195     2.1   501.6    0.00 
 355    8:40   0.17   59.2    57    1.3   133     2.2   501.6    0.00 
 355    8:50   0.19   60.3    54    1.0   191     1.8   501.6    0.00 
 355    9:00   0.23   61.8    51    0.4   117     1.5   501.6    0.00 
 355    9:10   0.22   62.5    50    0.5     9     1.5   501.6    0.00 
 355    9:20   0.29   63.1    48    0.1   120     0.9   501.7    0.00 
 355    9:30   0.36   64.9    46    0.6   141     1.8   501.7    0.00 
 355    9:40   0.35   65.0    45    0.3    68     1.5   501.8    0.00 
 355    9:50   0.35   64.5    46    1.5    24     3.1   501.8    0.00 
 355   10:00   0.39   63.0    51    3.0    50     4.2   501.8    0.00 
 355   10:10   0.40   62.4    53    3.3    58     4.8   501.8    0.00 
 355   10:20   0.42   61.8    54    2.8    61     4.4   501.8    0.00 
 355   10:30   0.41   62.6    50    1.2   104     3.3   501.8    0.00 
 355   10:40   0.41   63.8    48    1.0    42     2.6   501.8    0.00 
 355   10:50   0.42   64.6    47    0.5    36     3.1   501.8    0.00 
 355   11:00   0.42   66.8    44    0.4   150     2.0   501.8    0.00 
 355   11:10   0.40   66.8    44    1.1   145     1.9   501.8    0.00 
 355   11:20   0.41   66.6    44    1.7   156     3.8   501.8    0.00 
 355   11:30   0.43   68.1    41    1.3   170     3.7   501.8    0.00 
 355   11:40   0.30   66.7    43    2.7   130     5.0   501.8    0.00 
 355   11:50   0.36   66.6    43    2.9    99     5.3   501.8    0.00 
 355   12:00   0.34   66.2    44    5.0    96     8.3   501.8    0.00 
 355   12:10   0.36   64.9    46    6.2    87     8.8   501.8    0.00 
 355   12:20   0.35   64.9    46    4.9    88     7.7   501.8    0.00 
 355   12:30   0.43   65.3    45    3.7    89     6.4   501.8    0.00 
 355   12:40   0.41   65.7    45    3.0   104     5.3   501.8    0.00 
 355   12:50   0.38   66.1    44    2.8   119     4.7   501.8    0.00 
 355   13:00   0.43   66.0    44    2.7   106     4.7   501.8    0.00 
 355   13:10   0.43   66.6    43    2.9    95     4.9   501.8    0.00 
 355   13:20   0.42   66.8    43    2.5   107     5.0   501.8    0.00 
 355   13:30   0.42   66.9    43    3.1   112     5.3   501.8    0.00 
 355   13:40   0.42   67.2    42    3.6   107     6.1   501.8    0.00 
 355   13:50   0.42   67.5    42    2.6    88     5.2   501.8    0.00 
 355   14:00   0.39   68.1    41    2.3   103     4.8   501.8    0.00 
 355   14:10   0.40   68.2    41    2.3   114     4.9   501.8    0.00 
 355   14:20   0.31   68.5    41    2.0   106     5.4   501.8    0.00 
 355   14:30   0.19   66.6    44    4.0   106     7.5   501.8    0.00 
 355   14:40   0.20   66.2    44    5.2    98     6.9   501.8    0.00 
 355   14:50   0.16   65.7    45    4.7    97     8.0   501.8    0.00 
 355   15:00   0.13   65.3    45    5.3   100     7.0   501.8    0.00 
 355   15:10   0.12   65.0    46    5.1   102     7.8   501.8    0.00 
 355   15:20   0.12   64.9    46    4.6   107     6.3   501.8    0.00 
 355   15:30   0.12   64.9    46    4.2   124     6.4   501.8    0.00 
 355   15:40   0.10   64.8    47    4.5   126     6.8   501.8    0.00 
 355   15:50   0.09   64.7    47    4.3   136     6.3   501.8    0.00 
 355   16:00   0.06   64.1    48    4.9   132     6.3   501.8    0.00 
 355   16:10   0.04   63.4    49    4.6   130     6.9   501.8    0.00 
 355   16:20   0.03   62.9    50    3.7   126     5.8   501.8    0.00 
 355   16:30   0.01   62.4    52    2.3   119     3.7   501.8    0.00 
 355   16:40   0.00   61.7    53    1.4   151     2.6   501.8    0.00 
 355   16:50   0.00   61.1    54    1.8    91     3.0   501.7    0.00 
 355   17:00   0.00   60.4    56    2.0    31     2.9   501.7    0.00 
 355   17:10   0.00   59.2    59    2.9   356     3.6   501.7    0.00 
 355   17:20   0.00   58.8    60    2.1   325     2.9   501.7    0.00 
 355   17:30   0.00   58.0    62    1.9   267     2.9   501.6    0.00 
 355   17:40   0.00   57.4    64    1.8   257     3.1   501.6    0.00 
 355   17:50   0.00   55.9    67    3.4   250     3.9   501.6    0.00 
 355   18:00   0.00   55.7    68    3.2   246     3.5   501.6    0.00 
 355   18:10   0.00   55.6    68    2.8   264     3.7   501.6    0.00 
 355   18:20   0.00   56.1    66    2.3   287     2.9   501.6    0.00 
 355   18:30   0.00   56.0    67    2.0   330     2.9   501.6    0.00 
 355   18:40   0.00   55.2    68    1.6   321     2.3   501.6    0.00 
 355   18:50   0.00   55.8    67    3.4   244     4.9   501.6    0.00 
 355   19:00   0.00   55.5    68    4.4   211     5.0   501.6    0.00 
 355   19:10   0.00   55.2    69    4.7   238     6.4   501.6    0.00 
 355   19:20   0.00   55.1    69    3.9   229     4.7   501.6    0.00 
 355   19:30   0.00   55.0    69    3.7   210     4.7   501.6    0.00 
 355   19:40   0.00   55.9    66    3.9   220     5.3   501.6    0.00 
 355   19:50   0.00   57.0    63    3.8   243     5.8   501.6    0.00 
 355   20:00   0.00   56.8    64    2.1   242     3.7   501.6    0.00 
 355   20:10   0.00   55.0    69    3.3   254     4.2   501.6    0.00 
 355   20:20   0.00   54.6    70    1.6   284     3.1   501.6    0.00 
 355   20:30   0.00   54.0    71    3.1   243     5.2   501.6    0.00 
 355   20:40   0.00   54.5    69    5.1   235     6.4   501.6    0.00 
 355   20:50   0.00   54.7    68    3.9   227     4.9   501.6    0.00 
 355   21:00   0.00   54.4    69    3.4   224     4.5   501.6    0.00 
 355   21:10   0.00   54.4    68    3.9   230     4.8   501.6    0.00 
 355   21:20   0.00   54.2    69    3.5   219     4.2   501.6    0.00 
 355   21:30   0.00   53.8    70    4.0   251     6.4   501.6    0.00 
 355   21:40   0.00   54.2    71    3.2   309     3.9   501.6    0.00 
 355   21:50   0.00   55.0    68    2.3   289     3.1   501.6    0.00 
 355   22:00   0.00   53.3    71    1.8   222     2.8   501.6    0.00 
 355   22:10   0.00   53.4    70    2.8   224     3.7   501.6    0.00 
 355   22:20   0.00   53.9    70    3.2   213     3.8   501.6    0.00 
 355   22:30   0.00   53.6    70    2.9   243     4.4   501.6    0.00 
 355   22:40   0.00   52.9    71    4.0   222     5.8   501.6    0.00 
 355   22:50   0.00   54.4    67    4.2   219     5.0   501.6    0.00 
 355   23:00   0.00   54.9    66    4.7   214     5.8   501.6    0.00 
 355   23:10   0.00   54.4    67    5.3   214     6.7   501.6    0.00 
 355   23:20   0.00   54.0    67    3.6   220     4.3   501.6    0.00 
 355   23:30   0.00   55.6    63    2.2   240     3.7   501.6    0.00 
 355   23:40   0.00   53.9    68    3.5   258     6.2   501.6    0.00 
 355   23:50   0.00   53.9    67    3.9   270     5.8   501.6    0.00 
 356    0:00   0.00   55.3    64    0.9   357     3.3   501.6    0.00 
 356    0:10   0.00   54.5    65    1.8   182     3.7   501.6    0.00 
 356    0:20   0.00   53.7    66    1.0   230     3.1   501.6    0.00 
 356    0:30   0.00   54.5    64    1.8   209     3.9   501.6    0.00 
 356    0:40   0.00   52.7    68    3.6   223     5.3   501.6    0.00 
 356    0:50   0.00   52.9    68    3.8   213     5.3   501.6    0.00 
 356    1:00   0.00   53.0    68    4.3   210     6.4   501.6    0.00 
 356    1:10   0.00   54.7    64    4.4   211     6.5   501.6    0.00 
 356    1:20   0.00   54.4    64    1.7   194     3.3   501.6    0.00 
 356    1:30   0.00   54.0    65    3.0   323     6.1   501.6    0.00 
 356    1:40   0.00   54.3    64    2.1   262     4.5   501.6    0.00 
 356    1:50   0.00   52.3    67    4.1   242     5.8   501.6    0.00 
 356    2:00   0.00   52.3    67    4.6   245     6.0   501.6    0.00 
 356    2:10   0.00   52.9    65    3.4   235     4.5   501.6    0.00 
 356    2:20   0.00   52.7    66    2.3    27     7.0   501.6    0.00 
 356    2:30   0.00   51.0    72    1.8   197     5.3   501.6    0.00 
 356    2:40   0.00   50.6    73    1.6   200     4.5   501.6    0.00 
 356    2:50   0.00   50.7    72    1.6   238     3.9   501.6    0.00 
 356    3:00   0.00   50.7    72    3.7   237     5.5   501.6    0.00 
 356    3:10   0.00   50.1    72    2.7   262     5.0   501.6    0.00 
 356    3:20   0.00   50.0    74    1.4   225     2.8   501.6    0.00 
 356    3:30   0.00   49.6    74    4.0   221     6.0   501.6    0.00 
 356    3:40   0.00   49.6    74    3.7   245     5.3   501.6    0.00 
 356    3:50   0.00   49.7    73    4.0   227     5.8   501.6    0.00 
 356    4:00   0.00   50.1    71    2.6   246     4.2   501.6    0.00 
 356    4:10   0.00   50.5    70    2.7   234     4.3   501.6    0.00 
 356    4:20   0.00   50.0    71    1.1   263     3.0   501.6    0.00 
 356    4:30   0.00   49.7    71    1.4   287     3.8   501.6    0.00 
 356    4:40   0.00   52.7    65    3.1   241     5.4   501.6    0.00 
 356    4:50   0.00   50.4    70    3.6   234     5.0   501.6    0.00 
 356    5:00   0.00   49.8    71    4.7   228     7.2   501.6    0.00 
 356    5:10   0.00   50.4    70    4.3   220     5.5   501.6    0.00 
 356    5:20   0.00   50.1    70    4.7   207     5.6   501.6    0.00 
 356    5:30   0.00   50.7    69    4.1   211     5.2   501.6    0.00 
 356    5:40   0.00   50.8    67    4.2   249     5.5   501.6    0.00 
 356    5:50   0.00   51.0    66    1.8   307     5.3   501.6    0.00 
 356    6:00   0.00   50.0    70    0.7    49     3.7   501.6    0.00 
 356    6:10   0.00   50.2    71    1.8   235     4.6   501.6    0.00 
 356    6:20   0.00   49.9    72    3.9   233     5.8   501.6    0.00 
 356    6:30   0.00   49.1    73    3.1   201     4.9   501.6    0.00 
 356    6:40   0.00   48.0    75    2.0   278     4.5   501.6    0.00 
 356    6:50   0.00   49.0    74    3.9   256     4.7   501.6    0.00 
 356    7:00   0.00   49.7    71    3.3   206     5.1   501.6    0.00 
 356    7:10   0.01   51.2    66    2.2   207     4.4   501.6    0.00 
 356    7:20   0.04   53.7    63    3.5   307     5.3   501.6    0.00 
 356    7:30   0.07   56.5    59    2.1   295     3.7   501.6    0.00 
 356    7:40   0.09   56.4    61    3.9   215     5.8   501.6    0.00 

Return to Anza Borrego Desert Research Center graphs page.


Western Regional Climate Center,wrcc@dri.edu